Weather

DAILY 7 DAY TOTAL
onrain

Note: Some stations are located near irrigated fields and may also report irrigation

Alliston Mount Forest Blyth Guelph Grand Bend Strathroy Woodstock Belmont Simcoe Leamington Chatham West Lorne






West Lorne - Historical Weather Data
Date Max Temp (°C) Min Temp (°C) Avg Temp (°C) Rain (mm) 7Day Rain(mm) Total Rain(mm) Avg RH (%)
9/29/2022 19.4 5.1 11.1 0.0 19.0 378.2 88.3
9/28/2022 18.4 8.0 11.6 1.6 19.0 378.2 93.6
9/27/2022 13.1 10.2 11.4 4.0 21.4 376.6 96.4
9/26/2022 16.0 9.0 11.8 5.8 17.4 372.6 98.2
9/25/2022 18.4 9.5 14.5 7.6 20.2 366.8 97.0
9/24/2022 16.5 5.5 11.9 0.0 12.6 359.2 92.8
9/23/2022 18.7 3.5 10.9 0.0 12.6 359.2 83.7
9/22/2022 18.5 7.2 13.3 0.0 12.6 359.2 85.4
9/21/2022 25.7 15.9 21.1 4.0 12.6 359.2 96.0
9/20/2022 26.0 11.9 18.4 0.0 8.6 355.2 89.2
9/19/2022 28.4 12.3 20.7 8.6 23.0 355.2 90.9
9/18/2022 27.6 18.7 22.5 0.0 18.2 346.6 87.6
9/17/2022 26.2 13.8 20.3 0.0 18.2 346.6 93.2
9/16/2022 27.8 8.7 17.7 0.0 18.2 346.6 91.8
9/15/2022 20.0 6.9 13.5 0.0 18.2 346.6 90.0
9/14/2022 27.2 12.2 17.8 0.0 18.2 346.6 90.7
9/13/2022 23.7 9.8 15.5 14.4 18.2 346.6 93.7
9/12/2022 21.8 11.3 18.7 3.8 3.8 332.2 92.1
9/11/2022 24.6 19.3 20.9 0.0 0.2 328.4 95.2
9/10/2022 27.9 14.1 21.3 0.0 28.0 328.4 92.6
9/9/2022 26.4 9.5 18.1 0.0 28.0 328.4 90.1
9/8/2022 27.4 9.2 17.6 0.0 28.0 328.4 89.1
9/7/2022 27.7 10.2 17.9 0.0 28.0 328.4 89.2
9/6/2022 27.9 13.9 19.8 0.0 28.0 328.4 89.6
9/5/2022 23.0 16.5 18.8 0.2 30.2 328.4 99.0
9/4/2022 25.8 16.9 19.9 27.8 39.6 328.2 99.0
9/3/2022 29.7 17.3 22.9 0.0 11.8 300.4 91.4
9/2/2022 27.2 13.1 20.4 0.0 11.8 300.4 87.6
9/1/2022 26.1 10.5 18.9 0.0 12.6 300.4 86.0
8/31/2022 26.6 13.8 19.9 0.0 12.8 300.4 83.8
8/30/2022 26.1 17.5 21.6 2.2 12.8 300.4 91.7
8/29/2022 28.7 19.0 24.2 9.6 10.6 298.2 94.3
8/28/2022 28.1 11.9 20.8 0.0 2.4 288.6 89.9
8/27/2022 24.4 9.0 16.8 0.0 20.4 288.6 90.3
8/26/2022 28.0 13.3 20.7 0.8 20.4 288.6 93.9
8/25/2022 28.8 15.4 22.1 0.2 19.6 287.8 90.8
8/24/2022 30.1 14.6 21.9 0.0 19.4 287.6 87.3
8/23/2022 29.2 14.8 21.1 0.0 28.4 287.6 87.3
8/22/2022 29.1 17.3 21.8 1.4 28.4 287.6 93.0
8/21/2022 25.2 16.2 19.9 18.0 27.0 286.2 97.6
8/20/2022 28.9 14.3 21.7 0.0 9.0 268.2 91.8
8/19/2022 28.2 14.8 21.5 0.0 9.0 268.2 86.7
8/18/2022 28.8 11.2 19.8 0.0 9.0 268.2 86.7
8/17/2022 28.3 13.3 19.2 9.0 9.0 268.2 92.1
8/16/2022 25.5 11.7 18.7 0.0 0.0 259.2 90.3
8/15/2022 26.8 13.3 20.3 0.0 0.0 259.2 86.9
8/14/2022 24.2 16.1 19.3 0.0 39.2 259.2 91.4
8/13/2022 24.6 8.0 17.2 0.0 45.2 259.2 85.1
8/12/2022 28.1 9.0 18.0 0.0 45.2 259.2 80.3
8/11/2022 27.0 11.6 19.9 0.0 45.6 259.2 84.9
8/10/2022 28.2 11.1 19.5 0.0 60.2 259.2 87.1
8/9/2022 27.2 12.9 20.4 0.0 81.0 259.2 86.0
8/8/2022 28.8 18.1 23.3 39.2 81.0 259.2 99.7
8/7/2022 31.0 22.1 26.0 6.0 42.4 220.0 95.8
8/6/2022 29.3 20.0 24.8 0.0 36.4 214.0 94.8
8/5/2022 29.3 21.0 24.4 0.4 36.4 214.0 96.0
8/4/2022 26.8 20.8 23.6 14.6 36.0 213.6 98.7
8/3/2022 31.3 13.2 22.3 20.8 22.0 199.0 91.5
8/2/2022 28.4 14.1 21.5 0.0 1.6 178.2 85.6
8/1/2022 27.3 17.9 23.2 0.6 1.6 178.2 92.5
7/31/2022 28.3 14.1 21.8 0.0 1.0 177.6 83.8
7/30/2022 29.1 12.0 20.1 0.0 2.2 177.6 86.0
7/29/2022 27.3 13.3 20.3 0.0 2.6 177.6 80.7
7/28/2022 29.1 16.8 23.5 0.6 2.6 177.6 82.1
7/27/2022 24.6 14.3 20.4 0.4 2.0 177.0 98.4
7/26/2022 27.8 13.1 19.9 0.0 2.2 176.6 84.5
7/25/2022 27.8 14.2 21.4 0.0 2.4 176.6 82.7
7/24/2022 29.8 20.7 24.4 1.2 25.0 176.6 93.0
7/23/2022 29.4 18.6 23.8 0.4 34.6 175.4 90.6
7/22/2022 30.6 18.0 24.7 0.0 34.2 175.0 81.3
7/21/2022 31.0 20.3 24.8 0.0 34.2 175.0 83.6
7/20/2022 29.8 21.3 25.0 0.6 34.2 175.0 92.8
7/19/2022 32.3 18.9 24.8 0.2 35.2 174.4 90.2
7/18/2022 30.6 19.5 23.3 22.6 35.0 174.2 90.4
7/17/2022 24.8 15.6 20.4 10.8 12.4 151.6 98.7
7/16/2022 26.7 17.3 21.6 0.0 1.6 140.8 86.6
7/15/2022 26.6 9.1 19.0 0.0 1.6 140.8 78.3
7/14/2022 29.6 10.3 20.1 0.0 1.6 140.8 72.6
7/13/2022 23.9 13.0 18.1 1.6 1.6 140.8 93.1
7/12/2022 29.4 16.9 23.6 0.0 0.0 139.2 79.9
7/11/2022 29.4 10.1 22.0 0.0 6.6 139.2 77.9
7/10/2022 26.9 8.6 18.4 0.0 6.6 139.2 75.4
7/9/2022 29.6 10.8 20.1 0.0 6.6 139.2 75.4
7/8/2022 28.8 14.9 21.6 0.0 6.6 139.2 85.7
7/7/2022 26.3 13.1 20.3 0.0 11.8 139.2 88.5
7/6/2022 26.9 17.5 20.9 0.0 11.8 139.2 95.3
7/5/2022 30.5 19.4 24.1 6.6 12.2 139.2 87.8
7/4/2022 29.8 15.0 23.0 0.0 5.6 132.6 80.2
7/3/2022 27.0 13.1 20.1 0.0 5.6 132.6 70.0
7/2/2022 28.7 14.1 21.3 0.0 5.6 132.6 79.7
7/1/2022 31.2 19.9 23.5 5.2 5.6 132.6 83.1
6/30/2022 30.9 14.8 23.2 0.0 0.4 127.4 76.6
6/29/2022 26.6 14.3 18.8 0.4 0.4 127.4 87.1
6/28/2022 23.5 5.8 16.0 0.0 0.0 127.0 80.8
6/27/2022 23.4 10.9 18.4 0.0 0.0 127.0 68.1
6/26/2022 30.1 18.2 24.0 0.0 14.0 127.0 78.3
6/25/2022 28.7 14.8 22.5 0.0 14.0 127.0 71.7
6/24/2022 28.0 9.6 19.8 0.0 14.0 127.0 75.4
6/23/2022 28.3 11.3 20.0 0.0 14.0 127.0 73.3
6/22/2022 32.8 18.0 27.4 0.0 14.0 127.0 68.1
6/21/2022 33.4 16.5 25.7 0.0 14.0 127.0 74.2
6/20/2022 21.2 14.1 17.0 14.0 15.0 127.0 88.7
6/19/2022 26.0 5.7 16.7 0.0 1.0 113.0 63.4
6/18/2022 20.0 8.2 14.7 0.0 2.2 113.0 65.3
6/17/2022 28.9 13.8 23.0 0.0 2.4 113.0 61.6
6/16/2022 33.3 22.4 27.8 0.0 4.0 113.0 71.3
6/15/2022 34.5 19.1 27.0 0.0 7.8 113.0 78.5
6/14/2022 26.7 15.8 21.5 1.0 10.8 113.0 71.8
6/13/2022 25.2 11.2 19.3 0.0 26.0 112.0 74.1
6/12/2022 27.3 14.5 20.1 1.2 46.4 112.0 90.0
6/11/2022 24.8 11.5 18.0 0.2 45.2 110.8 89.0
6/10/2022 23.6 8.8 15.8 1.6 45.0 110.6 89.4
6/9/2022 22.2 10.9 15.6 3.8 43.4 109.0 90.4
6/8/2022 20.9 7.2 15.0 3.0 40.0 105.2 89.1
6/7/2022 22.2 11.5 17.0 16.2 39.2 102.2 96.2
6/6/2022 24.1 15.1 18.9 20.4 23.0 86.0 81.7
6/5/2022 20.6 9.0 15.7 0.0 2.6 65.6 74.5
6/4/2022 23.4 3.7 14.4 0.0 2.6 65.6 72.5
6/3/2022 25.4 7.1 17.1 0.0 2.6 65.6 70.6
6/2/2022 21.7 10.6 15.2 0.4 5.6 65.6 81.6
6/1/2022 30.5 13.8 22.0 2.2 5.4 65.2 87.4
5/31/2022 30.3 18.1 24.9 0.0 3.8 63.0 77.2
5/30/2022 29.2 15.1 22.4 0.0 3.8 63.0 82.8
5/29/2022 24.4 13.3 18.6 0.0 3.8 63.0 87.7
5/28/2022 24.3 10.2 17.0 0.0 4.0 63.0 82.2
5/27/2022 24.3 13.2 17.8 3.0 7.2 63.0 95.4
5/26/2022 24.5 15.4 19.5 0.2 11.8 60.0 92.7
5/25/2022 20.0 9.6 15.8 0.6 12.0 59.8 88.6
5/24/2022 21.7 2.1 13.0 0.0 15.8 59.2 79.0
5/23/2022 17.0 4.4 12.0 0.0 15.8 59.2 78.6
5/22/2022 17.8 7.5 13.1 0.2 25.8 59.2 95.0
5/21/2022 27.6 16.0 21.6 3.2 25.6 59.0 90.0
5/20/2022 24.9 13.6 19.6 7.6 22.4 55.8 94.1
5/19/2022 22.1 10.2 15.2 0.4 14.8 48.2 93.5
5/18/2022 13.3 3.5 9.0 4.4 14.4 47.8 95.8
5/17/2022 18.2 5.7 11.9 0.0 10.0 43.4 81.9
5/16/2022 21.0 9.9 14.5 10.0 10.0 43.4 92.1
5/15/2022 28.4 12.9 20.1 0.0 1.0 33.4 81.0
5/14/2022 26.2 13.7 19.3 0.0 1.0 33.4 88.1
5/13/2022 26.8 12.0 19.3 0.0 1.0 33.4 78.0
5/12/2022 27.4 7.1 17.9 0.0 1.0 33.4 60.6
5/11/2022 26.3 12.0 17.6 0.0 1.0 33.4 54.5
5/10/2022 24.5 6.9 16.1 0.0 1.4 33.4 54.7
5/9/2022 20.3 2.9 13.2 1.0 15.6 33.4 62.5
5/8/2022 17.7 1.7 10.5 0.0 14.8 32.4 62.6
5/7/2022 18.0 3.5 12.2 0.0 32.4 32.4 52.2
5/6/2022 16.3 9.6 12.2 0.0 32.4 32.4 69.9
5/5/2022 15.2 0.6 8.8 0.0 32.4 32.4 85.0
5/4/2022 15.3 2.8 10.2 0.4 32.4 32.4 95.8
5/3/2022 11.7 4.3 8.9 14.2 32.2 32.0 99.6
5/2/2022 13.1 5.3 10.4 0.2 18.0 17.8 94.5
5/1/2022 15.0 6.2 10.5 17.6 29.0 17.6 88.6